createdAt,value
2018-02-09T00:01:01.907Z,-3.50
2018-02-09T00:03:02.978Z,-3.50
2018-02-09T00:05:04.007Z,-3.50
2018-02-09T00:07:05.035Z,-3.50
2018-02-09T00:09:10.250Z,-3.60
2018-02-09T00:11:11.375Z,-3.60
2018-02-09T00:13:14.477Z,-3.60
2018-02-09T00:17:42.944Z,-3.70
2018-02-09T00:19:46.411Z,-3.70
2018-02-09T00:21:47.677Z,-3.80
2018-02-09T00:24:11.161Z,-3.80
2018-02-09T00:26:12.188Z,-3.70
2018-02-09T00:28:15.054Z,-3.70
2018-02-09T00:30:24.545Z,-3.70
2018-02-09T00:32:29.701Z,-3.70
2018-02-09T00:34:30.801Z,-3.80
2018-02-09T00:36:34.160Z,-3.80
2018-02-09T00:38:35.368Z,-3.70
2018-02-09T00:40:36.458Z,-3.70
2018-02-09T00:42:38.996Z,-3.70
2018-02-09T00:44:41.606Z,-3.70
2018-02-09T00:46:45.417Z,-3.80
2018-02-09T00:48:46.626Z,-3.80
2018-02-09T00:51:12.172Z,-3.80
2018-02-09T00:53:14.753Z,-3.80
2018-02-09T00:55:40.857Z,-3.80
2018-02-09T00:57:41.856Z,-3.80
2018-02-09T01:02:11.447Z,-3.80
2018-02-09T01:04:12.568Z,-3.80
2018-02-09T01:09:10.666Z,-3.90
2018-02-09T01:11:13.582Z,-3.90
2018-02-09T01:13:14.753Z,-3.90
2018-02-09T01:15:21.995Z,-3.90
2018-02-09T01:20:01.484Z,-4.00
2018-02-09T01:24:30.073Z,-4.00
2018-02-09T01:26:31.075Z,-4.00
2018-02-09T01:28:32.147Z,-4.00
2018-02-09T01:33:12.161Z,-4.00
2018-02-09T01:35:13.346Z,-4.10
2018-02-09T01:37:14.519Z,-4.10
2018-02-09T01:41:53.587Z,-4.10
2018-02-09T01:43:54.783Z,-4.10
2018-02-09T01:48:33.909Z,-4.10
2018-02-09T01:50:34.956Z,-4.20
2018-02-09T01:52:36.177Z,-4.20
2018-02-09T01:54:37.182Z,-4.20
2018-02-09T01:56:38.243Z,-4.20
2018-02-09T02:01:15.921Z,-4.20
2018-02-09T02:03:16.928Z,-4.20
2018-02-09T02:07:55.002Z,-4.20
2018-02-09T02:12:34.988Z,-4.20
2018-02-09T02:14:36.774Z,-4.20
2018-02-09T02:19:30.604Z,-4.20
2018-02-09T02:21:31.662Z,-4.20
2018-02-09T02:23:32.658Z,-4.30
2018-02-09T02:25:33.706Z,-4.30
2018-02-09T02:27:35.845Z,-4.30
2018-02-09T02:29:36.957Z,-4.30
2018-02-09T02:31:38.087Z,-4.40
2018-02-09T02:36:17.307Z,-4.40
2018-02-09T02:38:39.778Z,-4.40
2018-02-09T02:43:21.603Z,-4.40
2018-02-09T02:45:22.752Z,-4.40
2018-02-09T02:47:23.744Z,-4.40
2018-02-09T02:49:24.816Z,-4.40
2018-02-09T02:51:26.103Z,-4.40
2018-02-09T02:53:27.102Z,-4.40
2018-02-09T02:55:28.244Z,-4.40
2018-02-09T02:57:42.471Z,-4.40
2018-02-09T02:59:43.587Z,-4.40
2018-02-09T03:01:44.631Z,-4.40
2018-02-09T03:03:45.631Z,-4.40
2018-02-09T03:05:46.621Z,-4.40
2018-02-09T03:07:47.707Z,-4.40
2018-02-09T03:09:49.043Z,-4.40
2018-02-09T03:11:50.139Z,-4.40
2018-02-09T03:13:51.150Z,-4.40
2018-02-09T03:15:52.128Z,-4.50
2018-02-09T03:17:53.332Z,-4.50
2018-02-09T03:19:58.976Z,-4.50
2018-02-09T03:26:58.787Z,-4.50
2018-02-09T03:29:03.279Z,-4.50
2018-02-09T03:33:56.132Z,-4.50
2018-02-09T03:35:57.184Z,-4.50
2018-02-09T03:38:19.792Z,-4.50
2018-02-09T03:40:20.851Z,-4.50
2018-02-09T03:42:21.982Z,-4.60
2018-02-09T03:44:22.963Z,-4.60
2018-02-09T03:46:26.985Z,-4.60
2018-02-09T03:48:28.153Z,-4.60
2018-02-09T03:50:29.298Z,-4.60
2018-02-09T03:52:30.517Z,-4.60
2018-02-09T03:54:31.684Z,-4.60
2018-02-09T03:56:53.313Z,-4.70
2018-02-09T04:01:22.412Z,-4.70
2018-02-09T04:03:23.376Z,-4.70
2018-02-09T04:05:24.371Z,-4.70
2018-02-09T04:07:25.372Z,-4.70
2018-02-09T04:09:26.392Z,-4.70
2018-02-09T04:11:44.996Z,-4.70
2018-02-09T04:21:39.054Z,-4.70
2018-02-09T04:23:57.962Z,-4.70
2018-02-09T04:25:58.963Z,-4.70
2018-02-09T04:30:38.658Z,-4.70
2018-02-09T04:37:54.440Z,-4.70
2018-02-09T04:42:34.388Z,-4.70
2018-02-09T04:44:35.454Z,-4.70
2018-02-09T04:49:14.296Z,-4.70
2018-02-09T04:51:29.278Z,-4.70
2018-02-09T04:53:30.389Z,-4.70
2018-02-09T05:00:37.505Z,-4.70
2018-02-09T05:02:38.561Z,-4.70
2018-02-09T05:04:39.510Z,-4.70
2018-02-09T05:06:40.529Z,-4.70
2018-02-09T05:08:41.512Z,-4.70
2018-02-09T05:10:42.545Z,-4.70
2018-02-09T05:12:54.527Z,-4.70
2018-02-09T05:17:32.452Z,-4.70
2018-02-09T05:19:33.469Z,-4.60
2018-02-09T05:21:34.431Z,-4.60
2018-02-09T05:26:03.251Z,-4.50
2018-02-09T05:28:04.303Z,-4.40
2018-02-09T05:30:07.418Z,-4.40
2018-02-09T05:32:08.786Z,-4.40
2018-02-09T05:34:09.792Z,-4.40
2018-02-09T05:36:10.795Z,-4.40
2018-02-09T05:38:11.792Z,-4.40
2018-02-09T05:42:49.975Z,-4.40
2018-02-09T05:44:51.122Z,-4.40
2018-02-09T05:46:53.716Z,-4.40
2018-02-09T05:51:33.047Z,-4.40
2018-02-09T05:53:34.012Z,-4.40
2018-02-09T05:55:35.018Z,-4.40
2018-02-09T05:57:36.044Z,-4.40
2018-02-09T05:59:37.021Z,-4.40
2018-02-09T06:01:38.774Z,-4.50
2018-02-09T06:03:40.470Z,-4.50
2018-02-09T06:05:43.504Z,-4.50
2018-02-09T06:07:44.534Z,-4.50
2018-02-09T06:09:55.582Z,-4.50
2018-02-09T06:11:56.543Z,-4.50
2018-02-09T06:13:57.556Z,-4.60
2018-02-09T06:15:58.521Z,-4.60
2018-02-09T06:18:13.385Z,-4.60
2018-02-09T06:20:15.111Z,-4.70
2018-02-09T06:22:16.059Z,-4.70
2018-02-09T06:24:17.066Z,-4.60
2018-02-09T06:26:42.695Z,-4.70
2018-02-09T06:31:11.488Z,-4.70
2018-02-09T06:33:13.172Z,-4.80
2018-02-09T06:35:14.232Z,-4.80
2018-02-09T06:37:15.220Z,-4.80
2018-02-09T06:39:24.343Z,-4.80
2018-02-09T06:43:53.438Z,-4.80
2018-02-09T06:48:32.202Z,-4.80
2018-02-09T06:53:19.287Z,-4.80
2018-02-09T07:00:25.635Z,-4.80
2018-02-09T07:02:26.754Z,-4.70
2018-02-09T07:07:09.466Z,-4.70
2018-02-09T07:09:10.480Z,-4.70
2018-02-09T07:11:11.466Z,-4.60
2018-02-09T07:15:40.423Z,-4.60
2018-02-09T07:17:41.395Z,-4.40
2018-02-09T07:19:42.373Z,-4.40
2018-02-09T07:21:43.471Z,-4.30
2018-02-09T07:26:23.384Z,-3.90
2018-02-09T07:28:24.488Z,-3.90
2018-02-09T07:32:53.550Z,-3.40
2018-02-09T07:34:54.479Z,-3.00
2018-02-09T07:36:55.443Z,-2.50
2018-02-09T07:41:33.786Z,-1.60
2018-02-09T07:43:34.800Z,-1.20
2018-02-09T07:45:43.061Z,-0.80
2018-02-09T07:57:49.249Z,0.80
2018-02-09T07:59:50.200Z,1.10
2018-02-09T08:01:51.158Z,0.80
2018-02-09T08:06:20.310Z,1.00
2018-02-09T08:08:21.300Z,1.10
2018-02-09T08:10:22.407Z,1.10
2018-02-09T08:12:23.371Z,1.50
2018-02-09T08:14:31.643Z,1.70
2018-02-09T08:21:22.677Z,2.00
2018-02-09T08:23:23.647Z,2.20
2018-02-09T08:30:28.319Z,2.70
2018-02-09T08:32:29.335Z,2.60
2018-02-09T08:34:30.315Z,2.90
2018-02-09T08:36:31.309Z,2.40
2018-02-09T08:38:32.266Z,2.10
2018-02-09T08:40:45.056Z,1.70
2018-02-09T08:42:46.219Z,1.10
2018-02-09T08:44:47.923Z,0.40
2018-02-09T08:46:48.894Z,0.40
2018-02-09T08:48:49.860Z,0.30
2018-02-09T08:50:50.818Z,0.20
2018-02-09T08:52:52.530Z,0.00
2018-02-09T08:54:53.497Z,0.00
2018-02-09T08:56:54.511Z,0.00
2018-02-09T08:58:55.477Z,-0.20
2018-02-09T09:00:56.480Z,-0.10
2018-02-09T09:02:57.451Z,-0.20
2018-02-09T09:05:00.285Z,-0.20
2018-02-09T09:07:01.307Z,-0.10
2018-02-09T09:09:02.412Z,-0.10
2018-02-09T09:11:03.356Z,0.00
2018-02-09T09:13:04.333Z,0.00
2018-02-09T09:15:05.343Z,0.10
2018-02-09T09:17:06.299Z,0.10
2018-02-09T09:19:07.256Z,0.10
2018-02-09T09:21:08.213Z,0.40
2018-02-09T09:25:33.559Z,1.90
2018-02-09T09:30:00.190Z,2.50
2018-02-09T09:32:30.880Z,4.00
2018-02-09T09:34:31.882Z,4.00
2018-02-09T09:36:59.778Z,4.20
2018-02-09T09:39:00.905Z,4.20
2018-02-09T09:41:02.660Z,4.90
2018-02-09T09:43:04.386Z,4.90
2018-02-09T09:45:05.351Z,4.90
2018-02-09T09:47:06.327Z,5.10
2018-02-09T09:51:36.334Z,5.90
2018-02-09T09:53:37.332Z,5.90
2018-02-09T09:55:39.061Z,6.70
2018-02-09T10:00:07.924Z,5.60
2018-02-09T10:02:21.963Z,7.10
2018-02-09T10:04:22.931Z,7.10
2018-02-09T10:06:24.635Z,6.90
2018-02-09T10:08:46.097Z,7.00
2018-02-09T10:10:47.054Z,7.30
2018-02-09T10:12:48.756Z,6.80
2018-02-09T10:14:49.722Z,6.70
2018-02-09T10:17:15.360Z,6.30
2018-02-09T10:21:44.458Z,6.80
2018-02-09T10:23:45.431Z,6.80
2018-02-09T10:25:46.376Z,6.90
2018-02-09T10:27:47.328Z,7.30
2018-02-09T10:32:25.545Z,7.70
2018-02-09T10:34:26.510Z,6.50
2018-02-09T10:36:27.490Z,8.00
2018-02-09T10:40:57.316Z,8.40
2018-02-09T10:42:58.379Z,7.80
2018-02-09T10:44:59.553Z,8.80
2018-02-09T10:47:00.539Z,9.30
2018-02-09T10:49:01.507Z,7.40
2018-02-09T10:51:02.471Z,7.40
2018-02-09T10:53:03.428Z,8.50
2018-02-09T10:55:04.408Z,9.00
2018-02-09T10:57:05.371Z,8.80
2018-02-09T10:59:06.409Z,8.40
2018-02-09T11:01:07.376Z,7.80
2018-02-09T11:03:08.455Z,7.20
2018-02-09T11:05:16.866Z,7.00
2018-02-09T11:09:46.649Z,6.80
2018-02-09T11:11:47.635Z,7.00
2018-02-09T11:16:16.360Z,7.70
2018-02-09T11:20:46.410Z,7.40
2018-02-09T11:22:47.374Z,7.30
2018-02-09T11:24:48.311Z,8.20
2018-02-09T11:26:49.296Z,7.10
2018-02-09T11:28:50.254Z,7.50
2018-02-09T11:31:16.152Z,7.50
2018-02-09T11:33:17.143Z,6.90
2018-02-09T11:35:18.190Z,6.70
2018-02-09T11:37:19.159Z,6.00
2018-02-09T11:39:20.152Z,7.20
2018-02-09T11:41:21.871Z,6.30
2018-02-09T11:43:22.815Z,6.30
2018-02-09T11:45:45.315Z,7.00
2018-02-09T11:50:15.380Z,6.90
2018-02-09T11:57:16.348Z,7.40
2018-02-09T12:01:52.967Z,7.20
2018-02-09T12:03:53.924Z,6.60
2018-02-09T12:06:15.902Z,7.30
2018-02-09T12:08:16.857Z,7.30
2018-02-09T12:12:45.915Z,7.20
2018-02-09T12:14:47.031Z,7.20
2018-02-09T12:21:44.979Z,7.30
2018-02-09T12:23:45.931Z,7.60
2018-02-09T12:28:15.264Z,6.80
2018-02-09T12:32:43.652Z,6.90
2018-02-09T12:34:44.606Z,7.40
2018-02-09T12:36:45.552Z,6.80
2018-02-09T12:38:46.534Z,7.10
2018-02-09T12:40:47.483Z,6.90
2018-02-09T12:42:48.439Z,7.00
2018-02-09T12:44:49.412Z,7.30
2018-02-09T12:47:16.008Z,7.60
2018-02-09T12:51:46.302Z,7.20
2018-02-09T12:58:56.955Z,7.10
2018-02-09T13:00:57.916Z,7.70
2018-02-09T13:02:59.873Z,7.00
2018-02-09T13:05:00.808Z,7.10
2018-02-09T13:07:07.981Z,7.40
2018-02-09T13:09:08.956Z,6.90
2018-02-09T13:11:10.057Z,7.60
2018-02-09T13:13:11.035Z,8.10
2018-02-09T13:15:11.979Z,7.40
2018-02-09T13:17:38.551Z,7.50
2018-02-09T13:24:38.059Z,7.80
2018-02-09T13:31:35.167Z,8.00
2018-02-09T13:33:36.336Z,7.80
2018-02-09T13:35:37.308Z,7.40
2018-02-09T13:37:39.000Z,7.70
2018-02-09T13:39:39.953Z,7.60
2018-02-09T13:41:41.071Z,7.70
2018-02-09T13:43:42.002Z,6.90
2018-02-09T13:45:42.959Z,7.60
2018-02-09T13:47:43.919Z,6.90
2018-02-09T13:49:44.904Z,7.20
2018-02-09T13:51:48.051Z,7.70
2018-02-09T13:53:49.019Z,7.50
2018-02-09T13:55:50.047Z,7.60
2018-02-09T13:57:51.256Z,7.60
2018-02-09T13:59:52.208Z,7.20
2018-02-09T14:01:53.246Z,6.80
2018-02-09T14:04:18.432Z,7.10
2018-02-09T14:06:19.561Z,6.20
2018-02-09T14:10:56.284Z,7.30
2018-02-09T14:12:57.236Z,6.30
2018-02-09T14:15:17.662Z,6.60
2018-02-09T14:19:46.556Z,7.40
2018-02-09T14:24:15.159Z,7.30
2018-02-09T14:26:16.171Z,7.20
2018-02-09T14:28:17.204Z,7.00
2018-02-09T14:30:19.029Z,7.10
2018-02-09T14:32:20.092Z,6.90
2018-02-09T14:34:21.228Z,7.10
2018-02-09T14:36:22.399Z,6.50
2018-02-09T14:40:59.102Z,6.30
2018-02-09T14:43:00.090Z,6.00
2018-02-09T14:45:01.079Z,5.40
2018-02-09T14:47:02.053Z,5.80
2018-02-09T14:49:03.048Z,5.70
2018-02-09T14:51:03.995Z,5.60
2018-02-09T14:53:04.977Z,5.40
2018-02-09T14:55:05.943Z,5.50
2018-02-09T14:57:06.923Z,5.50
2018-02-09T14:59:32.073Z,5.20
2018-02-09T15:04:00.969Z,5.20
2018-02-09T15:06:01.912Z,5.30
2018-02-09T15:08:03.668Z,5.50
2018-02-09T15:10:12.265Z,5.40
2018-02-09T15:12:13.270Z,5.30
2018-02-09T15:14:14.276Z,5.30
2018-02-09T15:18:43.103Z,4.60
2018-02-09T15:20:44.099Z,4.70
2018-02-09T15:22:45.074Z,4.70
2018-02-09T15:24:53.912Z,4.60
2018-02-09T15:26:54.874Z,4.50
2018-02-09T15:28:55.843Z,4.30
2018-02-09T15:30:57.584Z,4.00
2018-02-09T15:32:58.665Z,3.90
2018-02-09T15:34:59.648Z,3.70
2018-02-09T15:37:00.624Z,3.90
2018-02-09T15:41:32.370Z,3.60
2018-02-09T15:43:33.361Z,3.30
2018-02-09T15:45:34.680Z,3.20
2018-02-09T15:47:35.674Z,2.90
2018-02-09T15:49:36.694Z,2.70
2018-02-09T15:51:37.768Z,2.40
2018-02-09T15:53:39.027Z,2.40
2018-02-09T15:55:40.052Z,2.20
2018-02-09T15:57:41.254Z,2.10
2018-02-09T15:59:42.256Z,2.10
2018-02-09T16:01:43.275Z,2.00
2018-02-09T16:03:44.610Z,2.00
2018-02-09T16:05:45.653Z,1.80
2018-02-09T16:07:46.677Z,1.60
2018-02-09T16:09:47.649Z,1.70
2018-02-09T16:11:48.636Z,1.70
2018-02-09T16:13:49.734Z,1.60
2018-02-09T16:15:50.814Z,1.40
2018-02-09T16:17:51.874Z,1.30
2018-02-09T16:20:01.170Z,1.20
2018-02-09T16:22:02.180Z,1.10
2018-02-09T16:24:03.135Z,1.00
2018-02-09T16:26:04.121Z,1.00
2018-02-09T16:28:05.128Z,0.90
2018-02-09T16:30:06.286Z,0.80
2018-02-09T16:32:07.406Z,0.80
2018-02-09T16:34:08.722Z,0.80
2018-02-09T16:36:09.822Z,0.80
2018-02-09T16:38:11.065Z,0.80
2018-02-09T16:40:12.125Z,0.70
2018-02-09T16:42:13.268Z,0.70
2018-02-09T16:44:14.469Z,0.60
2018-02-09T16:46:15.527Z,0.40
2018-02-09T16:48:16.524Z,0.50
2018-02-09T16:50:17.514Z,0.30
2018-02-09T16:52:18.542Z,0.30
2018-02-09T16:54:19.709Z,0.30
2018-02-09T16:56:20.931Z,0.30
2018-02-09T16:58:22.218Z,0.30
2018-02-09T17:00:23.363Z,0.30
2018-02-09T17:02:25.242Z,0.20
2018-02-09T17:04:26.373Z,0.10
2018-02-09T17:06:27.824Z,0.10
2018-02-09T17:08:29.175Z,0.10
2018-02-09T17:10:30.463Z,0.00
2018-02-09T17:12:31.987Z,0.10
2018-02-09T17:14:33.078Z,0.00
2018-02-09T17:16:34.767Z,0.00
2018-02-09T17:18:36.155Z,0.00
2018-02-09T17:20:37.429Z,0.00
2018-02-09T17:22:38.688Z,0.00
2018-02-09T17:24:39.831Z,0.00
2018-02-09T17:26:41.400Z,-0.10
2018-02-09T17:28:42.559Z,-0.10
2018-02-09T17:30:43.619Z,-0.10
2018-02-09T17:32:44.802Z,-0.10
2018-02-09T17:34:46.223Z,-0.10
2018-02-09T17:36:47.504Z,-0.10
2018-02-09T17:38:48.634Z,-0.10
2018-02-09T17:40:54.556Z,-0.10
2018-02-09T17:42:55.774Z,-0.10
2018-02-09T17:44:58.036Z,-0.10
2018-02-09T17:46:59.645Z,-0.10
2018-02-09T17:49:00.828Z,-0.10
2018-02-09T17:53:09.760Z,-0.10
2018-02-09T17:55:11.100Z,-0.10
2018-02-09T18:02:44.741Z,-0.20
2018-02-09T18:07:50.426Z,-0.20
2018-02-09T18:10:00.854Z,-0.30
2018-02-09T18:12:06.726Z,-0.30
2018-02-09T18:14:33.741Z,-0.30
2018-02-09T18:16:35.196Z,-0.30
2018-02-09T18:21:05.799Z,-0.40
2018-02-09T18:23:19.822Z,-0.40
2018-02-09T18:25:27.347Z,-0.40
2018-02-09T18:30:04.852Z,-0.50
2018-02-09T18:32:05.844Z,-0.40
2018-02-09T18:34:06.869Z,-0.50
2018-02-09T18:36:07.978Z,-0.50
2018-02-09T18:38:09.718Z,-0.50
2018-02-09T18:40:19.464Z,-0.50
2018-02-09T18:42:20.440Z,-0.50
2018-02-09T18:46:48.804Z,-0.50
2018-02-09T18:48:50.125Z,-0.50
2018-02-09T18:50:52.336Z,-0.50
2018-02-09T18:52:53.304Z,-0.50
2018-02-09T18:57:21.704Z,-0.60
2018-02-09T18:59:22.752Z,-0.60
2018-02-09T19:01:23.722Z,-0.60
2018-02-09T19:03:51.500Z,-0.60
2018-02-09T19:08:21.232Z,-0.70
2018-02-09T19:10:30.173Z,-0.70
2018-02-09T19:12:34.335Z,-0.70
2018-02-09T19:21:56.888Z,-0.90
2018-02-09T19:29:19.357Z,-0.90
2018-02-09T19:34:09.476Z,-0.80
2018-02-09T19:36:10.562Z,-0.90
2018-02-09T19:38:11.689Z,-0.90
2018-02-09T19:40:13.856Z,-0.90
2018-02-09T19:42:41.573Z,-1.00
2018-02-09T19:44:42.635Z,-1.00
2018-02-09T19:46:49.581Z,-1.00
2018-02-09T19:51:28.923Z,-1.20
2018-02-09T19:55:36.428Z,-1.10
2018-02-09T19:57:44.188Z,-1.10
2018-02-09T19:59:48.035Z,-1.20
2018-02-09T20:01:49.562Z,-1.20
2018-02-09T20:03:50.782Z,-1.30
2018-02-09T20:05:52.433Z,-1.30
2018-02-09T20:08:04.106Z,-1.30
2018-02-09T20:12:42.517Z,-1.30
2018-02-09T20:14:44.003Z,-1.20
2018-02-09T20:17:10.805Z,-1.20
2018-02-09T20:19:15.729Z,-1.20
2018-02-09T20:21:18.235Z,-1.20
2018-02-09T20:23:21.506Z,-1.20
2018-02-09T20:28:00.310Z,-1.30
2018-02-09T20:30:02.778Z,-1.30
2018-02-09T20:32:03.888Z,-1.30
2018-02-09T20:34:27.012Z,-1.30
2018-02-09T20:39:05.780Z,-1.40
2018-02-09T20:41:06.931Z,-1.40
2018-02-09T21:06:17.979Z,-1.60
2018-02-09T21:08:22.462Z,-1.60
2018-02-09T21:10:26.823Z,-1.60
2018-02-09T21:27:17.716Z,-1.70
2018-02-09T21:29:20.617Z,-1.80
2018-02-09T21:31:24.251Z,-1.80
2018-02-09T21:33:53.345Z,-1.90
